Time;durP1;ratioP1;P1;durP2;ratioP2;P2;SDS_P1;SDS_P2;PMS_P1;PMS_P2;Temp;Humidity;BMP_temperature;BMP_pressure;BME280_temperature;BME280_humidity;BME280_pressure;Samples;Min_cycle;Max_cycle;Signal;HPM_P1;HPM_P2
2022/01/01 00:01:20;;;;;;;34.30;25.63;;;;;;;;;;5112385;27;20020;-61
2022/01/01 00:03:45;;;;;;;29.38;25.88;;;;;;;;;;5111855;27;20475;-62
2022/01/01 00:06:10;;;;;;;46.67;40.50;;;;;;;;;;5115497;27;20027;-62
2022/01/01 00:08:35;;;;;;;61.60;45.20;;;;;;;;;;5119964;27;20175;-61
2022/01/01 00:11:01;;;;;;;64.30;47.95;;;;;;;;;;5117366;27;20025;-61
2022/01/01 00:13:26;;;;;;;39.72;33.92;;;;;;;;;;5114367;27;20632;-62
2022/01/01 00:15:51;;;;;;;40.33;30.70;;;;;;;;;;5116603;27;20138;-61
2022/01/01 00:18:17;;;;;;;34.83;27.65;;;;;;;;;;5112781;27;20015;-62
2022/01/01 00:20:42;;;;;;;42.85;30.92;;;;;;;;;;5117223;27;20024;-62
2022/01/01 00:23:08;;;;;;;39.70;28.15;;;;;;;;;;5118070;27;20049;-62
2022/01/01 00:25:33;;;;;;;38.85;29.50;;;;;;;;;;5115001;27;20156;-61
2022/01/01 00:27:58;;;;;;;40.30;30.38;;;;;;;;;;5117247;27;20016;-62
2022/01/01 00:30:25;;;;;;;36.08;24.63;;;;;;;;;;5117683;27;20052;-62
2022/01/01 00:32:50;;;;;;;39.20;26.25;;;;;;;;;;5113938;27;20019;-61
2022/01/01 00:35:15;;;;;;;29.38;23.65;;;;;;;;;;5117270;27;20412;-61
2022/01/01 00:37:41;;;;;;;40.22;26.27;;;;;;;;;;5115389;27;20468;-61
2022/01/01 00:40:06;;;;;;;28.83;24.40;;;;;;;;;;5115146;27;20023;-61
2022/01/01 00:42:32;;;;;;;33.53;24.65;;;;;;;;;;5117406;27;20015;-61
2022/01/01 00:44:57;;;;;;;26.10;21.30;;;;;;;;;;5118424;27;20023;-61
2022/01/01 00:47:22;;;;;;;39.03;26.70;;;;;;;;;;5117259;27;20019;-62
2022/01/01 00:49:48;;;;;;;42.95;25.10;;;;;;;;;;5119274;28;20553;-61
2022/01/01 00:52:13;;;;;;;43.17;30.55;;;;;;;;;;5117467;28;20075;-61
2022/01/01 00:54:38;;;;;;;28.17;20.95;;;;;;;;;;5116168;28;20028;-61
2022/01/01 00:57:04;;;;;;;29.92;24.77;;;;;;;;;;5118036;28;20519;-61
2022/01/01 00:59:30;;;;;;;29.85;23.00;;;;;;;;;;5116134;28;20019;-61
2022/01/01 01:01:56;;;;;;;26.33;21.00;;;;;;;;;;5113005;28;20028;-61
2022/01/01 01:04:21;;;;;;;27.17;21.27;;;;;;;;;;5112872;28;20023;-61
2022/01/01 01:06:47;;;;;;;32.13;21.65;;;;;;;;;;5116087;28;20021;-61
2022/01/01 01:09:12;;;;;;;25.52;22.50;;;;;;;;;;5117301;28;20103;-61
2022/01/01 01:11:43;;;;;;;37.35;22.48;;;;;;;;;;5114855;28;20511;-61
2022/01/01 01:14:10;;;;;;;30.00;22.73;;;;;;;;;;5118462;28;20593;-61
2022/01/01 01:16:36;;;;;;;27.38;23.90;;;;;;;;;;5111734;28;20033;-61
2022/01/01 01:19:01;;;;;;;23.52;19.13;;;;;;;;;;5116350;28;20027;-61
2022/01/01 01:21:28;;;;;;;29.60;21.98;;;;;;;;;;5113832;27;20094;-61
2022/01/01 01:23:54;;;;;;;39.65;24.70;;;;;;;;;;5116085;28;20063;-61
2022/01/01 01:26:20;;;;;;;24.38;16.05;;;;;;;;;;5117915;28;20058;-61
2022/01/01 01:28:49;;;;;;;32.85;21.00;;;;;;;;;;5115566;28;20150;-61
2022/01/01 01:31:15;;;;;;;159.20;128.50;;;;;;;;;;5115682;28;20047;-61
2022/01/01 01:33:40;;;;;;;45.40;36.53;;;;;;;;;;5116906;28;20080;-61
2022/01/01 01:36:05;;;;;;;43.13;27.38;;;;;;;;;;5116008;28;20126;-61
2022/01/01 01:38:36;;;;;;;26.58;23.67;;;;;;;;;;5117159;27;20027;-61
2022/01/01 01:41:01;;;;;;;29.38;24.17;;;;;;;;;;5119361;27;20023;-61
2022/01/01 01:43:26;;;;;;;21.88;15.35;;;;;;;;;;5122442;27;20015;-62
2022/01/01 01:45:52;;;;;;;24.35;19.20;;;;;;;;;;5118134;27;20171;-61
2022/01/01 01:48:17;;;;;;;30.88;15.57;;;;;;;;;;5117812;27;20047;-61
2022/01/01 01:50:42;;;;;;;19.33;12.70;;;;;;;;;;5119953;27;20126;-61
2022/01/01 01:53:08;;;;;;;18.38;13.73;;;;;;;;;;5115223;27;20042;-61
2022/01/01 01:55:34;;;;;;;17.75;10.80;;;;;;;;;;5121107;27;20019;-62
2022/01/01 01:57:59;;;;;;;16.98;11.13;;;;;;;;;;5118205;27;20445;-61
2022/01/01 02:01:07;;;;;;;15.23;11.23;;;;;;;;;;5119006;27;20028;-61
2022/01/01 02:03:10;;;;;;;13.48;10.68;;;;;;;;;;5117718;27;20028;-61
2022/01/01 02:05:36;;;;;;;16.27;11.80;;;;;;;;;;5116065;27;20011;-61
2022/01/01 02:08:02;;;;;;;16.70;12.38;;;;;;;;;;5120372;27;20023;-62
2022/01/01 02:10:28;;;;;;;18.85;13.00;;;;;;;;;;5116491;27;20011;-62
2022/01/01 02:12:54;;;;;;;14.20;12.23;;;;;;;;;;5117240;27;20095;-61
2022/01/01 02:18:23;;;;;;;18.27;12.68;;;;;;;;;;5054274;27;20032;-61
2022/01/01 02:20:51;;;;;;;11.52;9.57;;;;;;;;;;5115924;27;20016;-61
2022/01/01 02:23:17;;;;;;;13.63;10.90;;;;;;;;;;5117139;27;20015;-61
2022/01/01 02:25:43;;;;;;;17.75;10.60;;;;;;;;;;5114529;27;20541;-61
2022/01/01 02:28:10;;;;;;;11.45;10.25;;;;;;;;;;5116403;27;20015;-61
2022/01/01 02:30:35;;;;;;;19.00;15.13;;;;;;;;;;5113525;27;20066;-61
2022/01/01 02:33:00;;;;;;;22.25;12.88;;;;;;;;;;5115759;27;20090;-61
2022/01/01 02:35:26;;;;;;;14.35;10.95;;;;;;;;;;5120292;27;20034;-61
2022/01/01 02:37:51;;;;;;;11.45;10.25;;;;;;;;;;5121134;27;20023;-61
2022/01/01 02:40:16;;;;;;;13.10;11.57;;;;;;;;;;5116693;27;20099;-61
2022/01/01 02:42:45;;;;;;;18.13;11.65;;;;;;;;;;5117597;27;20424;-61
2022/01/01 02:45:11;;;;;;;16.15;11.63;;;;;;;;;;5116277;27;20072;-61
2022/01/01 02:47:37;;;;;;;17.17;11.55;;;;;;;;;;5119651;27;20024;-61
2022/01/01 02:50:03;;;;;;;16.13;11.05;;;;;;;;;;5116508;27;20019;-61
2022/01/01 02:52:29;;;;;;;14.50;11.43;;;;;;;;;;5117906;27;20640;-61
2022/01/01 02:54:54;;;;;;;20.63;10.73;;;;;;;;;;5119448;27;20085;-61
2022/01/01 02:57:19;;;;;;;18.23;10.15;;;;;;;;;;5117138;27;20023;-61
2022/01/01 02:59:45;;;;;;;13.18;9.40;;;;;;;;;;5114149;27;20046;-61
2022/01/01 03:02:10;;;;;;;11.35;9.95;;;;;;;;;;5116799;27;20495;-61
2022/01/01 03:04:35;;;;;;;13.70;11.05;;;;;;;;;;5116581;27;20016;-61
2022/01/01 03:07:01;;;;;;;12.68;10.40;;;;;;;;;;5118010;27;20031;-61
2022/01/01 03:09:34;;;;;;;22.50;9.90;;;;;;;;;;5121405;27;20037;-61
2022/01/01 03:12:00;;;;;;;9.55;7.57;;;;;;;;;;5115365;27;20019;-61
2022/01/01 03:14:25;;;;;;;10.05;8.95;;;;;;;;;;5100847;27;20473;-61
2022/01/01 03:16:51;;;;;;;9.70;8.43;;;;;;;;;;5114183;27;20047;-61
2022/01/01 03:19:16;;;;;;;7.93;6.75;;;;;;;;;;5116123;27;20540;-62
2022/01/01 03:21:42;;;;;;;8.57;7.57;;;;;;;;;;5116725;27;20048;-61
2022/01/01 03:24:08;;;;;;;6.53;5.93;;;;;;;;;;5118092;27;20472;-61
2022/01/01 03:26:33;;;;;;;11.52;9.15;;;;;;;;;;5117455;27;20102;-61
2022/01/01 03:28:58;;;;;;;16.08;9.85;;;;;;;;;;5117925;27;20016;-61
2022/01/01 03:31:25;;;;;;;9.77;8.88;;;;;;;;;;5116240;27;20077;-61
2022/01/01 03:33:51;;;;;;;14.23;10.60;;;;;;;;;;5120942;27;20127;-62
2022/01/01 03:36:16;;;;;;;10.80;9.40;;;;;;;;;;5114024;27;20546;-61
2022/01/01 03:38:41;;;;;;;14.07;10.75;;;;;;;;;;5115189;27;20081;-61
2022/01/01 03:41:07;;;;;;;14.98;10.52;;;;;;;;;;5118090;27;20574;-61
2022/01/01 03:43:32;;;;;;;15.18;9.50;;;;;;;;;;5116740;27;20471;-61
2022/01/01 03:45:57;;;;;;;16.52;11.52;;;;;;;;;;5114876;27;20015;-61
2022/01/01 03:48:22;;;;;;;20.35;12.32;;;;;;;;;;5121227;27;20044;-61
2022/01/01 03:50:48;;;;;;;15.20;12.95;;;;;;;;;;5114831;27;20016;-62
2022/01/01 03:53:13;;;;;;;22.35;13.90;;;;;;;;;;5116856;27;20027;-62
2022/01/01 03:55:39;;;;;;;21.90;14.70;;;;;;;;;;5115390;27;20015;-61
2022/01/01 03:58:04;;;;;;;17.75;11.52;;;;;;;;;;5115409;27;20097;-61
2022/01/01 04:00:29;;;;;;;15.15;11.63;;;;;;;;;;5116729;27;20015;-61
2022/01/01 04:03:04;;;;;;;18.02;13.13;;;;;;;;;;5117096;27;20054;-62
2022/01/01 04:05:29;;;;;;;17.13;13.23;;;;;;;;;;5113446;27;20038;-61
2022/01/01 04:07:54;;;;;;;12.32;10.80;;;;;;;;;;5119485;27;20054;-61
2022/01/01 04:10:20;;;;;;;16.77;10.60;;;;;;;;;;5115387;27;20163;-61
2022/01/01 04:12:45;;;;;;;16.83;10.82;;;;;;;;;;5114996;27;20545;-62
2022/01/01 04:15:10;;;;;;;14.60;12.63;;;;;;;;;;5115900;27;20058;-61
2022/01/01 04:17:37;;;;;;;12.07;9.30;;;;;;;;;;5119661;27;20492;-61
2022/01/01 04:20:03;;;;;;;11.10;9.25;;;;;;;;;;5113343;27;20484;-61
2022/01/01 04:22:29;;;;;;;12.13;7.55;;;;;;;;;;5115064;27;20059;-62
2022/01/01 04:24:54;;;;;;;11.23;7.00;;;;;;;;;;5114084;27;20488;-62
2022/01/01 04:27:19;;;;;;;13.02;8.18;;;;;;;;;;5115821;27;20039;-63
2022/01/01 04:29:45;;;;;;;8.65;7.20;;;;;;;;;;5115699;27;20023;-63
2022/01/01 04:32:13;;;;;;;13.70;9.45;;;;;;;;;;5097084;27;20036;-62
2022/01/01 04:34:39;;;;;;;8.00;7.20;;;;;;;;;;5114048;27;20023;-62
2022/01/01 04:37:11;;;;;;;8.73;7.57;;;;;;;;;;5115811;27;20016;-62
2022/01/01 04:39:36;;;;;;;10.98;7.22;;;;;;;;;;5114369;27;20024;-62
2022/01/01 04:42:02;;;;;;;8.45;7.53;;;;;;;;;;5117559;27;20492;-60
2022/01/01 04:44:27;;;;;;;12.32;7.13;;;;;;;;;;5116884;27;20019;-60
2022/01/01 04:46:52;;;;;;;9.45;7.25;;;;;;;;;;5116084;27;20016;-60
2022/01/01 04:49:18;;;;;;;8.02;6.15;;;;;;;;;;5114582;27;20024;-60
2022/01/01 04:51:43;;;;;;;10.02;7.10;;;;;;;;;;5113546;27;20550;-60
2022/01/01 04:54:15;;;;;;;12.80;7.95;;;;;;;;;;5118423;28;20027;-60
2022/01/01 04:56:44;;;;;;;10.20;6.80;;;;;;;;;;5115955;28;20023;-60
2022/01/01 04:59:09;;;;;;;10.40;8.70;;;;;;;;;;5115679;28;20024;-60
2022/01/01 05:01:34;;;;;;;9.35;6.80;;;;;;;;;;5115914;28;20547;-60
2022/01/01 05:04:00;;;;;;;8.73;6.78;;;;;;;;;;5101946;28;20027;-60
2022/01/01 05:06:26;;;;;;;12.63;8.43;;;;;;;;;;5114727;28;20028;-60
2022/01/01 05:08:51;;;;;;;6.72;5.85;;;;;;;;;;5117884;28;20027;-59
2022/01/01 05:11:16;;;;;;;14.77;7.57;;;;;;;;;;5112327;28;20015;-60
2022/01/01 05:13:41;;;;;;;10.48;8.75;;;;;;;;;;5117911;27;20023;-60
2022/01/01 05:16:07;;;;;;;9.23;7.07;;;;;;;;;;5116986;27;20026;-59
2022/01/01 05:18:36;;;;;;;14.07;8.02;;;;;;;;;;5116379;27;20035;-60
2022/01/01 05:21:01;;;;;;;15.32;8.43;;;;;;;;;;5122137;27;20015;-47
2022/01/01 05:23:27;;;;;;;10.60;8.68;;;;;;;;;;5121094;27;20585;-43
2022/01/01 05:25:52;;;;;;;7.63;6.18;;;;;;;;;;5120356;27;20533;-45
2022/01/01 05:28:17;;;;;;;9.48;7.05;;;;;;;;;;5120839;27;20071;-44
2022/01/01 05:30:43;;;;;;;7.25;6.18;;;;;;;;;;5117491;27;20541;-43
2022/01/01 05:33:08;;;;;;;7.57;5.70;;;;;;;;;;5120078;27;20027;-47
2022/01/01 05:35:33;;;;;;;8.40;7.50;;;;;;;;;;5118592;27;20016;-44
2022/01/01 05:37:58;;;;;;;7.03;5.30;;;;;;;;;;5118908;27;20770;-47
2022/01/01 05:40:24;;;;;;;7.13;4.65;;;;;;;;;;5123713;27;20075;-45
2022/01/01 05:42:49;;;;;;;5.43;4.47;;;;;;;;;;5118859;27;20121;-46
2022/01/01 05:45:14;;;;;;;5.70;4.95;;;;;;;;;;5119992;27;20649;-46
2022/01/01 05:47:40;;;;;;;7.15;5.57;;;;;;;;;;5121843;27;20102;-46
2022/01/01 05:50:05;;;;;;;9.82;7.20;;;;;;;;;;5123290;27;20168;-45
2022/01/01 05:52:31;;;;;;;8.65;5.82;;;;;;;;;;5112023;27;20046;-48
2022/01/01 05:54:56;;;;;;;9.35;6.93;;;;;;;;;;5119992;27;20027;-46
2022/01/01 05:57:21;;;;;;;8.40;6.20;;;;;;;;;;5120368;27;20023;-48
2022/01/01 05:59:46;;;;;;;8.98;5.50;;;;;;;;;;5115861;27;20188;-49
2022/01/01 06:02:12;;;;;;;6.10;5.45;;;;;;;;;;5117096;27;20093;-48
2022/01/01 06:04:37;;;;;;;5.28;4.30;;;;;;;;;;5120811;27;20105;-48
2022/01/01 06:07:03;;;;;;;8.30;5.03;;;;;;;;;;5118584;27;20043;-45
2022/01/01 06:09:28;;;;;;;8.90;6.10;;;;;;;;;;5116870;27;20515;-44
2022/01/01 06:11:54;;;;;;;8.88;5.18;;;;;;;;;;5115367;27;20456;-46
2022/01/01 06:14:21;;;;;;;6.03;4.95;;;;;;;;;;5115751;27;20031;-45
2022/01/01 06:16:46;;;;;;;10.68;7.10;;;;;;;;;;5122975;27;20020;-45
2022/01/01 06:19:11;;;;;;;6.57;5.97;;;;;;;;;;5114728;27;20099;-46
2022/01/01 06:21:37;;;;;;;12.05;8.52;;;;;;;;;;5118721;27;20043;-48
2022/01/01 06:24:02;;;;;;;9.93;8.93;;;;;;;;;;5115962;27;20022;-46
2022/01/01 06:26:27;;;;;;;11.73;8.70;;;;;;;;;;5116945;27;20076;-51
2022/01/01 06:28:52;;;;;;;11.38;9.05;;;;;;;;;;5120859;27;20528;-47
2022/01/01 06:31:18;;;;;;;17.13;8.77;;;;;;;;;;5118484;27;20020;-47
2022/01/01 06:33:43;;;;;;;14.32;9.63;;;;;;;;;;5111791;27;20698;-46
2022/01/01 06:36:12;;;;;;;11.02;8.18;;;;;;;;;;5117613;27;20027;-44
2022/01/01 06:38:38;;;;;;;10.50;7.03;;;;;;;;;;5116795;27;20046;-44
2022/01/01 06:41:03;;;;;;;13.88;8.57;;;;;;;;;;5115016;27;20023;-47
2022/01/01 06:43:28;;;;;;;14.02;8.60;;;;;;;;;;5121953;27;20050;-47
2022/01/01 06:45:54;;;;;;;11.50;7.78;;;;;;;;;;5114115;27;20026;-47
2022/01/01 06:48:19;;;;;;;8.18;7.38;;;;;;;;;;5122273;27;20011;-46
2022/01/01 06:50:44;;;;;;;8.48;6.88;;;;;;;;;;5117490;27;20521;-46
2022/01/01 06:53:10;;;;;;;11.15;7.07;;;;;;;;;;5115579;27;20019;-46
2022/01/01 06:55:35;;;;;;;10.00;7.00;;;;;;;;;;5120436;27;20031;-46
2022/01/01 06:58:01;;;;;;;9.13;7.10;;;;;;;;;;5118973;27;20577;-46
2022/01/01 07:00:26;;;;;;;11.95;7.75;;;;;;;;;;5114981;27;20023;-44
2022/01/01 07:02:51;;;;;;;7.57;6.70;;;;;;;;;;5117482;27;20624;-48
2022/01/01 07:05:17;;;;;;;9.50;6.03;;;;;;;;;;5114981;27;20023;-47
2022/01/01 07:07:42;;;;;;;8.02;6.43;;;;;;;;;;5114817;27;20529;-47
2022/01/01 07:10:08;;;;;;;11.45;7.47;;;;;;;;;;5119454;27;20128;-45
2022/01/01 07:12:34;;;;;;;8.57;6.05;;;;;;;;;;5118693;27;20554;-45
2022/01/01 07:15:00;;;;;;;7.50;6.18;;;;;;;;;;5117142;27;20034;-46
2022/01/01 07:17:25;;;;;;;10.60;8.55;;;;;;;;;;5117060;27;20040;-46
2022/01/01 07:19:50;;;;;;;9.77;6.50;;;;;;;;;;5123083;27;20022;-47
2022/01/01 07:22:16;;;;;;;12.35;8.35;;;;;;;;;;5118845;27;20089;-49
2022/01/01 07:24:41;;;;;;;11.07;8.00;;;;;;;;;;5113856;27;20030;-46
2022/01/01 07:27:06;;;;;;;8.20;6.65;;;;;;;;;;5113787;27;20083;-45
2022/01/01 07:29:32;;;;;;;15.45;9.80;;;;;;;;;;5115856;27;20156;-44
2022/01/01 07:31:57;;;;;;;12.65;7.35;;;;;;;;;;5114742;27;20741;-45
2022/01/01 07:34:23;;;;;;;14.00;9.52;;;;;;;;;;5114768;27;20031;-48
2022/01/01 07:36:48;;;;;;;18.30;8.55;;;;;;;;;;5114408;27;20084;-46
2022/01/01 07:39:14;;;;;;;10.43;8.07;;;;;;;;;;5115682;27;20038;-46
2022/01/01 07:41:39;;;;;;;10.52;6.82;;;;;;;;;;5112968;27;20039;-46
2022/01/01 07:44:05;;;;;;;11.30;6.43;;;;;;;;;;5107229;27;20038;-44
2022/01/01 07:46:30;;;;;;;7.15;6.28;;;;;;;;;;5115890;27;20076;-44
2022/01/01 07:48:55;;;;;;;4.95;4.20;;;;;;;;;;5111342;27;20447;-44
2022/01/01 07:51:20;;;;;;;7.38;4.78;;;;;;;;;;5111808;27;20031;-45
2022/01/01 07:53:46;;;;;;;7.72;4.35;;;;;;;;;;5117586;27;20149;-47
2022/01/01 07:56:11;;;;;;;9.05;5.65;;;;;;;;;;5109015;27;20023;-45
2022/01/01 07:58:36;;;;;;;6.63;4.75;;;;;;;;;;5111979;27;20019;-48
2022/01/01 08:01:02;;;;;;;8.25;5.60;;;;;;;;;;5110448;27;20539;-48
2022/01/01 08:03:29;;;;;;;10.73;7.10;;;;;;;;;;5112679;27;20041;-45
2022/01/01 08:05:55;;;;;;;10.05;7.40;;;;;;;;;;5111567;27;20441;-50
2022/01/01 08:08:21;;;;;;;8.80;6.28;;;;;;;;;;5112118;27;20037;-48
2022/01/01 08:10:47;;;;;;;11.10;7.78;;;;;;;;;;5112128;27;20024;-48
2022/01/01 08:13:22;;;;;;;10.27;4.75;;;;;;;;;;5111892;27;20026;-48
2022/01/01 08:15:49;;;;;;;7.65;4.97;;;;;;;;;;5113370;27;20027;-48
2022/01/01 08:18:15;;;;;;;6.63;5.03;;;;;;;;;;5112251;27;20031;-45
2022/01/01 08:20:41;;;;;;;10.38;5.63;;;;;;;;;;5112360;27;20405;-44
2022/01/01 08:23:07;;;;;;;6.90;4.80;;;;;;;;;;5112790;27;20069;-49
2022/01/01 08:25:33;;;;;;;6.90;5.10;;;;;;;;;;5112597;27;20106;-46
2022/01/01 08:27:58;;;;;;;6.63;5.93;;;;;;;;;;5112591;27;20066;-47
2022/01/01 08:30:23;;;;;;;11.48;6.50;;;;;;;;;;5111955;27;20042;-47
2022/01/01 08:32:52;;;;;;;5.95;5.28;;;;;;;;;;5093742;27;20088;-50
2022/01/01 08:35:17;;;;;;;19.70;15.13;;;;;;;;;;5114328;27;20488;-48
2022/01/01 08:37:42;;;;;;;21.95;18.73;;;;;;;;;;5108547;27;20038;-47
2022/01/01 08:40:08;;;;;;;17.70;14.02;;;;;;;;;;5116100;27;20170;-47
2022/01/01 08:42:33;;;;;;;33.72;25.25;;;;;;;;;;5114693;27;20026;-47
2022/01/01 08:45:00;;;;;;;34.95;29.98;;;;;;;;;;5114413;27;20035;-49
2022/01/01 08:47:31;;;;;;;18.05;15.85;;;;;;;;;;5113714;27;20417;-45
2022/01/01 08:49:57;;;;;;;21.52;15.77;;;;;;;;;;5113095;27;20019;-47
2022/01/01 08:52:23;;;;;;;18.98;16.67;;;;;;;;;;5113692;27;20038;-48
2022/01/01 08:54:49;;;;;;;21.67;18.10;;;;;;;;;;5111831;28;20049;-45
2022/01/01 08:57:14;;;;;;;20.80;18.58;;;;;;;;;;5106079;28;20028;-46
2022/01/01 08:59:40;;;;;;;20.27;15.32;;;;;;;;;;5116464;28;20522;-49
2022/01/01 09:02:05;;;;;;;17.88;16.10;;;;;;;;;;5114657;28;20019;-45
2022/01/01 09:04:30;;;;;;;30.25;17.63;;;;;;;;;;5116036;28;20063;-47
2022/01/01 09:06:56;;;;;;;25.92;23.33;;;;;;;;;;5111635;28;20027;-47
2022/01/01 09:09:21;;;;;;;21.35;19.25;;;;;;;;;;5116760;28;20391;-48
2022/01/01 09:11:46;;;;;;;15.95;14.27;;;;;;;;;;5113004;28;20178;-47
2022/01/01 09:14:12;;;;;;;19.40;15.20;;;;;;;;;;5114382;28;20027;-50
2022/01/01 09:16:37;;;;;;;13.40;11.98;;;;;;;;;;5114501;28;20023;-47
2022/01/01 09:19:05;;;;;;;15.23;12.23;;;;;;;;;;5113410;28;20012;-47
2022/01/01 09:21:30;;;;;;;13.88;10.80;;;;;;;;;;5112442;28;20035;-50
2022/01/01 09:23:55;;;;;;;12.98;11.10;;;;;;;;;;5113951;28;20080;-50
2022/01/01 09:26:21;;;;;;;11.73;10.38;;;;;;;;;;5116898;28;20801;-49
2022/01/01 09:28:46;;;;;;;10.60;9.55;;;;;;;;;;5109825;28;20502;-46
2022/01/01 09:31:12;;;;;;;13.60;11.35;;;;;;;;;;5110791;28;20430;-44
2022/01/01 09:33:37;;;;;;;12.20;10.90;;;;;;;;;;5110482;28;20676;-53
2022/01/01 09:36:04;;;;;;;12.88;11.50;;;;;;;;;;5111028;28;20020;-48
2022/01/01 09:38:30;;;;;;;17.60;10.68;;;;;;;;;;5111740;28;20016;-48
2022/01/01 09:40:56;;;;;;;32.10;26.30;;;;;;;;;;5113927;28;20062;-53
2022/01/01 09:43:22;;;;;;;16.92;14.73;;;;;;;;;;5109943;28;20051;-53
2022/01/01 09:45:52;;;;;;;24.77;21.35;;;;;;;;;;5112837;28;20046;-48
2022/01/01 09:48:19;;;;;;;36.03;28.10;;;;;;;;;;5113418;28;20174;-52
2022/01/01 09:50:47;;;;;;;27.75;22.80;;;;;;;;;;5108696;28;20024;-56
2022/01/01 09:53:12;;;;;;;28.73;25.85;;;;;;;;;;5113162;28;20523;-56
2022/01/01 09:55:38;;;;;;;19.50;17.42;;;;;;;;;;5110723;28;20027;-56
2022/01/01 09:58:03;;;;;;;11.80;10.60;;;;;;;;;;5096650;28;20019;-57
2022/01/01 10:00:28;;;;;;;14.23;12.73;;;;;;;;;;5116144;27;20552;-57
2022/01/01 10:02:55;;;;;;;15.77;12.23;;;;;;;;;;5118121;27;20020;-57
2022/01/01 10:05:21;;;;;;;9.80;8.73;;;;;;;;;;5116346;27;20035;-50
2022/01/01 10:07:46;;;;;;;13.30;11.35;;;;;;;;;;5114211;27;20800;-55
2022/01/01 10:10:32;;;;;;;8.32;6.55;;;;;;;;;;5119885;27;20047;-58
2022/01/01 10:13:08;;;;;;;10.75;7.43;;;;;;;;;;5111336;27;20051;-51
2022/01/01 10:15:35;;;;;;;147.43;110.30;;;;;;;;;;5111009;27;20023;-58
2022/01/01 10:18:05;;;;;;;59.88;39.45;;;;;;;;;;5117120;27;20042;-50
2022/01/01 10:20:34;;;;;;;82.10;56.33;;;;;;;;;;5118713;27;20019;-55
2022/01/01 10:23:26;;;;;;;41.83;20.75;;;;;;;;;;5118150;27;20051;-57
2022/01/01 10:28:35;;;;;;;70.53;61.80;;;;;;;;;;5115862;27;20097;-57
2022/01/01 10:31:00;;;;;;;44.95;38.40;;;;;;;;;;5115804;27;20020;-58
2022/01/01 10:33:25;;;;;;;49.00;39.28;;;;;;;;;;5113405;27;20020;-57
2022/01/01 10:35:53;;;;;;;21.17;17.73;;;;;;;;;;5117765;27;20623;-57
2022/01/01 10:38:23;;;;;;;16.42;14.32;;;;;;;;;;5113778;27;20029;-58
2022/01/01 10:40:52;;;;;;;15.60;14.10;;;;;;;;;;5116512;27;20047;-58
2022/01/01 10:43:20;;;;;;;28.77;22.25;;;;;;;;;;5119784;27;20657;-58
2022/01/01 10:45:47;;;;;;;23.38;17.00;;;;;;;;;;5115780;27;20035;-58
2022/01/01 10:48:18;;;;;;;13.18;11.77;;;;;;;;;;5113582;27;20042;-58
2022/01/01 10:50:43;;;;;;;;;;;;;;;;;;5112875;27;20031;-58
2022/01/01 10:53:15;;;;;;;19.93;16.40;;;;;;;;;;5111843;27;20440;-59
2022/01/01 10:55:42;;;;;;;15.27;13.65;;;;;;;;;;5116636;27;20274;-59
2022/01/01 10:58:07;;;;;;;23.05;18.30;;;;;;;;;;5117616;27;20019;-59
2022/01/01 11:00:39;;;;;;;13.13;11.88;;;;;;;;;;5110608;27;20028;-59
2022/01/01 11:03:04;;;;;;;10.38;8.50;;;;;;;;;;5113981;27;20056;-59
2022/01/01 11:05:53;;;;;;;11.70;9.63;;;;;;;;;;5115766;27;20107;-60
2022/01/01 11:08:19;;;;;;;18.63;11.13;;;;;;;;;;5102833;27;20047;-60
2022/01/01 11:10:47;;;;;;;11.45;10.35;;;;;;;;;;5115443;27;20027;-59
2022/01/01 11:13:12;;;;;;;14.25;11.70;;;;;;;;;;5114899;27;20050;-59
2022/01/01 11:15:40;;;;;;;17.35;11.27;;;;;;;;;;5112254;27;20023;-59
2022/01/01 11:18:05;;;;;;;15.57;9.68;;;;;;;;;;5117606;27;20023;-59
2022/01/01 11:20:36;;;;;;;11.85;10.75;;;;;;;;;;5113722;27;20067;-59
2022/01/01 11:23:06;;;;;;;12.30;10.83;;;;;;;;;;5112306;27;20141;-59
2022/01/01 11:25:33;;;;;;;10.97;8.23;;;;;;;;;;5113122;27;20019;-61
2022/01/01 11:28:01;;;;;;;8.82;7.60;;;;;;;;;;5111932;27;20084;-59
2022/01/01 11:30:30;;;;;;;7.85;7.10;;;;;;;;;;5110928;27;20086;-59
2022/01/01 11:33:05;;;;;;;10.43;7.20;;;;;;;;;;5111488;27;20036;-58
2022/01/01 11:35:49;;;;;;;7.22;4.82;;;;;;;;;;5114398;27;20503;-58
2022/01/01 11:38:15;;;;;;;5.65;4.80;;;;;;;;;;5115398;27;20027;-58
2022/01/01 11:40:55;;;;;;;8.02;6.60;;;;;;;;;;5111831;27;20016;-58
2022/01/01 11:43:40;;;;;;;12.88;11.60;;;;;;;;;;5112846;27;20023;-58
2022/01/01 11:46:07;;;;;;;10.90;8.40;;;;;;;;;;5111375;27;20128;-58
2022/01/01 11:48:36;;;;;;;9.50;7.18;;;;;;;;;;5112878;27;20487;-58
2022/01/01 11:51:20;;;;;;;12.77;6.88;;;;;;;;;;5116704;27;20028;-58
2022/01/01 11:54:04;;;;;;;9.25;8.32;;;;;;;;;;5110683;27;20036;-58
2022/01/01 11:56:52;;;;;;;11.30;9.82;;;;;;;;;;5114912;27;20023;-59
2022/01/01 11:59:18;;;;;;;8.43;7.55;;;;;;;;;;5116236;27;20680;-57
2022/01/01 12:01:43;;;;;;;8.07;6.55;;;;;;;;;;5112653;27;20056;-58
2022/01/01 12:04:21;;;;;;;7.93;6.38;;;;;;;;;;5115149;27;20026;-58
2022/01/01 12:06:54;;;;;;;8.77;6.22;;;;;;;;;;5114281;27;20031;-58
2022/01/01 12:09:19;;;;;;;9.60;7.85;;;;;;;;;;5115632;27;20386;-58
2022/01/01 12:11:52;;;;;;;9.40;6.20;;;;;;;;;;5116256;27;20027;-58
2022/01/01 12:14:25;;;;;;;8.60;7.63;;;;;;;;;;5101378;27;20039;-58
2022/01/01 12:16:52;;;;;;;10.07;7.05;;;;;;;;;;5115666;27;20045;-58
2022/01/01 12:19:19;;;;;;;8.95;6.72;;;;;;;;;;5120142;27;20027;-59
2022/01/01 12:21:44;;;;;;;11.10;8.43;;;;;;;;;;5116385;27;20069;-58
2022/01/01 12:24:17;;;;;;;11.23;9.65;;;;;;;;;;5117729;27;20106;-58
2022/01/01 12:26:50;;;;;;;17.75;13.43;;;;;;;;;;5115005;27;20118;-58
2022/01/01 12:29:20;;;;;;;12.35;10.05;;;;;;;;;;5115774;27;20031;-58
2022/01/01 12:31:58;;;;;;;14.32;12.55;;;;;;;;;;5114452;27;20109;-58
2022/01/01 12:34:27;;;;;;;16.65;13.07;;;;;;;;;;5113512;27;20043;-58
2022/01/01 12:36:53;;;;;;;13.40;11.90;;;;;;;;;;5110302;27;20020;-58
2022/01/01 12:39:19;;;;;;;11.38;9.45;;;;;;;;;;5118095;27;20060;-58
2022/01/01 12:41:45;;;;;;;17.40;11.35;;;;;;;;;;5117096;27;20398;-58
2022/01/01 12:44:13;;;;;;;11.25;8.85;;;;;;;;;;5115048;27;20400;-58
2022/01/01 12:46:48;;;;;;;9.15;8.10;;;;;;;;;;5118375;27;20019;-57
2022/01/01 12:49:14;;;;;;;12.05;9.15;;;;;;;;;;5115603;27;20465;-58
2022/01/01 12:51:40;;;;;;;12.52;10.05;;;;;;;;;;5115935;27;20132;-58
2022/01/01 12:54:05;;;;;;;11.60;8.95;;;;;;;;;;5114557;27;20030;-57
2022/01/01 12:56:31;;;;;;;9.25;7.97;;;;;;;;;;5114852;28;20011;-57
2022/01/01 12:58:57;;;;;;;16.55;11.15;;;;;;;;;;5117221;28;20125;-57
2022/01/01 13:01:23;;;;;;;11.43;8.68;;;;;;;;;;5113524;28;20027;-57
2022/01/01 13:03:50;;;;;;;10.10;7.65;;;;;;;;;;5116415;28;20047;-56
2022/01/01 13:06:26;;;;;;;9.30;8.00;;;;;;;;;;5112482;28;20548;-57
2022/01/01 13:08:57;;;;;;;10.30;8.13;;;;;;;;;;5111617;28;20023;-57
2022/01/01 13:11:22;;;;;;;10.73;8.55;;;;;;;;;;5113689;28;20476;-57
2022/01/01 13:13:47;;;;;;;12.02;8.50;;;;;;;;;;5118688;28;20023;-56
2022/01/01 13:16:13;;;;;;;16.63;13.23;;;;;;;;;;5116127;28;20011;-57
2022/01/01 13:18:38;;;;;;;9.88;8.98;;;;;;;;;;5116185;28;20024;-57
2022/01/01 13:21:03;;;;;;;22.27;16.90;;;;;;;;;;5111365;28;20464;-57
2022/01/01 13:23:29;;;;;;;11.00;9.50;;;;;;;;;;5116802;28;20011;-56
2022/01/01 13:25:55;;;;;;;20.05;14.75;;;;;;;;;;5114761;28;20100;-54
2022/01/01 13:28:30;;;;;;;19.95;17.83;;;;;;;;;;5113668;28;20615;-56
2022/01/01 13:30:59;;;;;;;14.90;13.18;;;;;;;;;;5113442;28;20161;-56
2022/01/01 13:33:25;;;;;;;11.80;9.63;;;;;;;;;;5116922;27;20031;-56
2022/01/01 13:35:54;;;;;;;28.00;18.15;;;;;;;;;;5115971;27;20145;-56
2022/01/01 13:38:20;;;;;;;13.32;11.93;;;;;;;;;;5121553;27;20027;-54
2022/01/01 13:40:50;;;;;;;19.90;12.70;;;;;;;;;;5119711;27;20015;-55
2022/01/01 13:43:16;;;;;;;12.25;11.00;;;;;;;;;;5120974;27;20037;-55
2022/01/01 13:45:42;;;;;;;11.68;10.52;;;;;;;;;;5116371;27;20011;-55
2022/01/01 13:48:08;;;;;;;14.80;11.93;;;;;;;;;;5121465;27;20446;-52
2022/01/01 13:50:38;;;;;;;14.02;12.60;;;;;;;;;;5102386;27;20030;-52
2022/01/01 13:53:08;;;;;;;15.25;13.35;;;;;;;;;;5122248;27;20023;-55
2022/01/01 13:55:34;;;;;;;15.40;13.00;;;;;;;;;;5118930;27;20110;-53
2022/01/01 13:58:02;;;;;;;12.50;11.30;;;;;;;;;;5118426;27;20160;-53
2022/01/01 14:00:27;;;;;;;10.93;8.85;;;;;;;;;;5116802;27;20090;-53
2022/01/01 14:02:56;;;;;;;12.98;10.00;;;;;;;;;;5116220;27;20012;-53
2022/01/01 14:05:23;;;;;;;10.02;8.30;;;;;;;;;;5116875;27;20019;-52
2022/01/01 14:07:48;;;;;;;15.93;10.13;;;;;;;;;;5120896;27;20184;-54
2022/01/01 14:10:18;;;;;;;15.32;10.25;;;;;;;;;;5118913;27;20095;-54
2022/01/01 14:12:44;;;;;;;16.90;12.45;;;;;;;;;;5117715;27;20019;-54
2022/01/01 14:15:11;;;;;;;13.07;11.38;;;;;;;;;;5121317;27;20019;-52
2022/01/01 14:18:09;;;;;;;13.48;11.23;;;;;;;;;;5116939;27;20507;-54
2022/01/01 14:20:43;;;;;;;13.90;10.27;;;;;;;;;;5102352;27;20059;-52
2022/01/01 14:23:08;;;;;;;15.75;13.07;;;;;;;;;;5118836;27;20050;-55
2022/01/01 14:25:34;;;;;;;26.85;21.15;;;;;;;;;;5117056;27;20023;-52
2022/01/01 14:28:00;;;;;;;24.10;16.90;;;;;;;;;;5121008;27;20065;-53
2022/01/01 14:30:26;;;;;;;15.60;13.90;;;;;;;;;;5122344;27;20023;-56